Time;durP1;ratioP1;P1;durP2;ratioP2;P2;SDS_P1;SDS_P2;PMS_P1;PMS_P2;Temp;Humidity;BMP_temperature;BMP_pressure;BME280_temperature;BME280_humidity;BME280_pressure;Samples;Min_cycle;Max_cycle;Signal;HPM_P1;HPM_P2
2023/12/09 00:01:59;;;;;;;77.35;18.90;;;;;;;;;;6134470;28;20193;-83
2023/12/09 00:05:02;;;;;;;72.57;18.65;;;;;;;;;;6160990;28;20051;-83
2023/12/09 00:08:04;;;;;;;77.85;18.77;;;;;;;;;;6156599;28;20043;-82
2023/12/09 00:11:06;;;;;;;77.25;18.98;;;;;;;;;;6140230;28;20078;-82
2023/12/09 00:14:08;;;;;;;90.20;19.53;;;;;;;;;;6118650;28;20070;-81
2023/12/09 00:17:10;;;;;;;72.93;18.05;;;;;;;;;;6137706;28;20513;-81
2023/12/09 00:20:12;;;;;;;81.45;17.90;;;;;;;;;;6162135;28;20053;-81
2023/12/09 00:23:14;;;;;;;89.90;19.08;;;;;;;;;;6147826;28;20053;-80
2023/12/09 00:26:16;;;;;;;79.10;17.45;;;;;;;;;;6134237;28;20050;-82
2023/12/09 00:29:18;;;;;;;65.97;15.65;;;;;;;;;;6146499;28;20050;-81
2023/12/09 00:32:19;;;;;;;73.47;18.63;;;;;;;;;;6151136;28;20445;-82
2023/12/09 00:35:21;;;;;;;65.40;16.70;;;;;;;;;;6151651;28;20054;-82
2023/12/09 00:38:23;;;;;;;70.05;16.30;;;;;;;;;;6137843;28;20050;-82
2023/12/09 00:41:25;;;;;;;59.30;15.63;;;;;;;;;;6135326;28;20055;-82
2023/12/09 00:44:27;;;;;;;44.65;13.00;;;;;;;;;;6138238;28;20050;-82
2023/12/09 00:47:29;;;;;;;56.05;15.82;;;;;;;;;;6151187;28;20049;-82
2023/12/09 00:50:30;;;;;;;119.13;30.90;;;;;;;;;;6154271;28;20054;-81
2023/12/09 00:53:32;;;;;;;71.22;20.25;;;;;;;;;;6159412;28;20127;-82
2023/12/09 00:56:34;;;;;;;63.33;14.93;;;;;;;;;;6141320;28;20050;-83
2023/12/09 00:59:36;;;;;;;63.92;14.25;;;;;;;;;;6153254;28;20398;-83
2023/12/09 01:02:40;;;;;;;56.17;14.20;;;;;;;;;;6154206;28;20190;-82
2023/12/09 01:05:42;;;;;;;52.50;14.60;;;;;;;;;;6162141;28;20141;-83
2023/12/09 01:08:44;;;;;;;48.15;14.70;;;;;;;;;;6175381;28;20345;-81
2023/12/09 01:11:46;;;;;;;54.53;15.70;;;;;;;;;;6158291;28;20051;-81
2023/12/09 01:14:48;;;;;;;79.22;20.02;;;;;;;;;;6155959;28;20166;-81
2023/12/09 01:17:50;;;;;;;85.35;20.40;;;;;;;;;;6155818;28;20050;-81
2023/12/09 01:20:52;;;;;;;75.70;19.63;;;;;;;;;;6155728;28;20125;-81
2023/12/09 01:23:53;;;;;;;73.82;17.45;;;;;;;;;;6152895;28;20347;-81
2023/12/09 01:26:55;;;;;;;77.80;17.83;;;;;;;;;;6158594;28;20130;-82
2023/12/09 01:29:57;;;;;;;60.20;17.42;;;;;;;;;;6159556;28;20070;-83
2023/12/09 01:32:59;;;;;;;56.35;15.40;;;;;;;;;;6146881;28;20062;-81
2023/12/09 01:36:01;;;;;;;51.55;13.98;;;;;;;;;;6126073;28;20043;-82
2023/12/09 01:39:03;;;;;;;48.22;13.63;;;;;;;;;;6141251;28;20043;-81
2023/12/09 01:42:04;;;;;;;62.85;17.27;;;;;;;;;;6137614;28;20503;-81
2023/12/09 01:45:06;;;;;;;71.10;17.20;;;;;;;;;;6147596;28;20413;-82
2023/12/09 01:48:08;;;;;;;64.93;15.70;;;;;;;;;;6135170;28;20050;-81
2023/12/09 01:51:10;;;;;;;69.22;15.30;;;;;;;;;;6137360;28;20038;-82
2023/12/09 01:54:13;;;;;;;70.95;17.70;;;;;;;;;;6131821;28;20058;-81
2023/12/09 01:57:15;;;;;;;59.42;16.48;;;;;;;;;;6152331;28;20051;-81
2023/12/09 02:01:06;;;;;;;48.13;13.45;;;;;;;;;;6160013;28;20050;-82
2023/12/09 02:04:09;;;;;;;51.60;12.77;;;;;;;;;;6141889;28;20055;-81
2023/12/09 02:07:10;;;;;;;53.00;12.20;;;;;;;;;;6144110;28;20402;-81
2023/12/09 02:10:12;;;;;;;48.67;12.20;;;;;;;;;;6153915;28;20047;-81
2023/12/09 02:13:23;;;;;;;50.15;12.25;;;;;;;;;;6151347;28;20047;-83
2023/12/09 02:16:36;;;;;;;54.15;12.35;;;;;;;;;;6149055;28;20055;-83
2023/12/09 02:19:38;;;;;;;;;;;;;;;;;;6156818;28;20159;-84
2023/12/09 02:22:40;;;;;;;53.22;11.95;;;;;;;;;;6152879;28;20383;-83
2023/12/09 02:25:42;;;;;;;46.10;11.88;;;;;;;;;;6150090;28;20053;-82
2023/12/09 02:28:51;;;;;;;47.40;12.40;;;;;;;;;;6153622;28;20510;-82
2023/12/09 02:31:59;;;;;;;49.92;12.65;;;;;;;;;;6138317;28;20054;-83
2023/12/09 02:35:03;;;;;;;54.00;14.43;;;;;;;;;;6153787;28;20062;-83
2023/12/09 02:38:05;;;;;;;;;;;;;;;;;;6154078;28;20055;-82
2023/12/09 02:41:08;;;;;;;60.83;14.55;;;;;;;;;;6150220;28;19922;-84
2023/12/09 02:44:10;;;;;;;;;;;;;;;;;;6136654;28;20838;-83
2023/12/09 02:47:13;;;;;;;58.88;13.77;;;;;;;;;;6146624;28;19929;-82
2023/12/09 02:50:15;;;;;;;69.35;18.63;;;;;;;;;;6158114;28;20489;-83
2023/12/09 02:53:18;;;;;;;61.65;15.30;;;;;;;;;;6153468;28;20047;-84
2023/12/09 02:56:20;;;;;;;58.65;13.77;;;;;;;;;;6129741;28;20051;-83
2023/12/09 02:59:21;;;;;;;42.75;12.35;;;;;;;;;;6150869;28;20075;-83
2023/12/09 03:02:23;;;;;;;54.13;12.57;;;;;;;;;;6149788;28;20129;-84
2023/12/09 03:05:25;;;;;;;45.42;11.23;;;;;;;;;;6153585;28;20102;-83
2023/12/09 03:08:27;;;;;;;51.58;12.63;;;;;;;;;;6130971;28;20528;-83
2023/12/09 03:11:29;;;;;;;55.05;13.35;;;;;;;;;;6155253;28;20718;-83
2023/12/09 03:14:30;;;;;;;66.10;11.80;;;;;;;;;;6143399;28;20051;-83
2023/12/09 03:17:35;;;;;;;50.35;13.25;;;;;;;;;;6148483;28;20422;-84
2023/12/09 03:20:37;;;;;;;60.33;13.13;;;;;;;;;;6140192;28;20054;-83
2023/12/09 03:23:43;;;;;;;61.75;14.27;;;;;;;;;;6157546;28;20044;-83
2023/12/09 03:26:51;;;;;;;57.05;12.70;;;;;;;;;;6154629;28;20055;-84
2023/12/09 03:29:53;;;;;;;54.30;12.90;;;;;;;;;;6155869;28;21503;-83
2023/12/09 03:32:55;;;;;;;47.42;12.27;;;;;;;;;;6152110;28;20050;-83
2023/12/09 03:35:56;;;;;;;50.63;14.13;;;;;;;;;;6155004;28;20061;-84
2023/12/09 03:38:58;;;;;;;44.05;12.55;;;;;;;;;;6134053;28;20049;-83
2023/12/09 03:42:00;;;;;;;50.95;12.82;;;;;;;;;;6155443;28;20111;-82
2023/12/09 03:45:02;;;;;;;52.40;13.85;;;;;;;;;;6153917;28;20046;-83
2023/12/09 03:48:04;;;;;;;54.95;14.57;;;;;;;;;;6154292;28;20043;-84
2023/12/09 03:51:06;;;;;;;45.25;14.57;;;;;;;;;;6163340;28;20541;-83
2023/12/09 03:54:08;;;;;;;41.65;13.00;;;;;;;;;;6158805;28;20051;-83
2023/12/09 03:57:12;;;;;;;53.20;13.63;;;;;;;;;;6146726;28;20047;-84
2023/12/09 04:00:14;;;;;;;66.00;16.23;;;;;;;;;;6167367;28;20035;-85
2023/12/09 04:03:16;;;;;;;45.78;12.68;;;;;;;;;;6152746;28;20053;-83
2023/12/09 04:06:18;;;;;;;43.92;11.63;;;;;;;;;;6152677;28;20074;-83
2023/12/09 04:09:22;;;;;;;49.72;12.80;;;;;;;;;;6175078;28;20031;-84
2023/12/09 04:12:24;;;;;;;56.72;13.13;;;;;;;;;;6167012;28;20125;-82
2023/12/09 04:15:27;;;;;;;53.20;13.73;;;;;;;;;;6134164;28;20050;-83
2023/12/09 04:18:29;;;;;;;55.95;12.80;;;;;;;;;;6137354;28;20055;-84
2023/12/09 04:21:31;;;;;;;56.65;14.57;;;;;;;;;;6156868;28;20047;-83
2023/12/09 04:24:33;;;;;;;70.78;14.57;;;;;;;;;;6152614;28;20051;-82
2023/12/09 04:27:35;;;;;;;61.47;12.88;;;;;;;;;;6158764;28;20050;-85
2023/12/09 04:30:37;;;;;;;53.17;12.45;;;;;;;;;;6161662;28;20051;-82
2023/12/09 04:33:40;;;;;;;116.70;14.40;;;;;;;;;;6139403;28;20051;-82
2023/12/09 04:36:42;;;;;;;51.67;11.88;;;;;;;;;;6140444;28;20051;-83
2023/12/09 04:39:44;;;;;;;89.13;13.43;;;;;;;;;;6130590;28;20058;-83
2023/12/09 04:42:45;;;;;;;88.30;13.52;;;;;;;;;;6151042;28;20402;-84
2023/12/09 04:45:47;;;;;;;44.58;10.40;;;;;;;;;;6148403;28;20051;-82
2023/12/09 04:48:49;;;;;;;70.47;11.38;;;;;;;;;;6150328;28;20494;-82
2023/12/09 04:51:51;;;;;;;45.67;10.75;;;;;;;;;;6133359;28;20671;-80
2023/12/09 04:54:52;;;;;;;68.55;11.27;;;;;;;;;;6150448;28;20373;-81
2023/12/09 04:57:54;;;;;;;88.35;13.70;;;;;;;;;;6150976;28;20113;-81
2023/12/09 05:00:56;;;;;;;94.65;13.85;;;;;;;;;;6153426;28;20075;-81
2023/12/09 05:03:58;;;;;;;63.42;13.52;;;;;;;;;;6152222;28;20057;-80
2023/12/09 05:07:00;;;;;;;69.40;14.32;;;;;;;;;;6151343;28;20059;-83
2023/12/09 05:10:03;;;;;;;89.63;15.00;;;;;;;;;;6152570;28;20054;-81
2023/12/09 05:13:05;;;;;;;62.40;13.32;;;;;;;;;;6137805;28;20113;-80
2023/12/09 05:16:07;;;;;;;56.75;12.82;;;;;;;;;;6152038;28;20046;-82
2023/12/09 05:19:09;;;;;;;49.78;12.20;;;;;;;;;;6150772;28;20050;-82
2023/12/09 05:22:12;;;;;;;103.82;14.27;;;;;;;;;;6137944;28;20050;-82
2023/12/09 05:25:14;;;;;;;50.22;11.82;;;;;;;;;;6153797;28;20129;-82
2023/12/09 05:28:16;;;;;;;55.00;12.57;;;;;;;;;;6120630;28;20055;-82
2023/12/09 05:31:17;;;;;;;46.92;11.18;;;;;;;;;;6152471;28;20046;-81
2023/12/09 05:34:19;;;;;;;51.63;10.85;;;;;;;;;;6137141;28;20047;-81
2023/12/09 05:37:21;;;;;;;50.45;10.40;;;;;;;;;;6136795;28;20066;-82
2023/12/09 05:40:22;;;;;;;71.13;13.82;;;;;;;;;;6151959;28;20046;-82
2023/12/09 05:43:24;;;;;;;74.38;16.35;;;;;;;;;;6154051;28;20049;-83
2023/12/09 05:46:26;;;;;;;97.30;21.77;;;;;;;;;;6136114;28;20103;-82
2023/12/09 05:49:28;;;;;;;96.25;19.38;;;;;;;;;;6153482;28;20066;-83
2023/12/09 05:52:29;;;;;;;124.43;23.52;;;;;;;;;;6137354;28;20389;-82
2023/12/09 05:55:31;;;;;;;105.22;23.13;;;;;;;;;;6138088;28;20094;-85
2023/12/09 05:58:33;;;;;;;76.18;19.10;;;;;;;;;;6140126;28;20061;-83
2023/12/09 06:01:35;;;;;;;100.97;15.07;;;;;;;;;;6153319;28;20527;-83
2023/12/09 06:04:37;;;;;;;64.18;14.70;;;;;;;;;;6152677;28;20694;-84
2023/12/09 06:07:39;;;;;;;69.10;15.18;;;;;;;;;;6150454;28;20047;-84
2023/12/09 06:10:41;;;;;;;55.97;14.90;;;;;;;;;;6143978;28;20055;-83
2023/12/09 06:13:42;;;;;;;50.40;12.32;;;;;;;;;;6146547;28;20058;-83
2023/12/09 06:16:44;;;;;;;53.10;13.18;;;;;;;;;;6149312;28;20039;-83
2023/12/09 06:19:45;;;;;;;59.55;14.15;;;;;;;;;;6150510;28;20129;-83
2023/12/09 06:22:47;;;;;;;82.60;21.38;;;;;;;;;;6148154;28;20197;-84
2023/12/09 06:25:49;;;;;;;55.20;13.80;;;;;;;;;;6160434;28;20047;-85
2023/12/09 06:28:51;;;;;;;57.50;12.90;;;;;;;;;;6151943;28;20051;-84
2023/12/09 06:31:53;;;;;;;52.15;13.55;;;;;;;;;;6151188;28;20130;-85
2023/12/09 06:34:55;;;;;;;43.92;11.95;;;;;;;;;;6146760;28;20208;-85
2023/12/09 06:37:57;;;;;;;53.85;10.35;;;;;;;;;;6155475;28;20046;-85
2023/12/09 06:40:59;;;;;;;47.28;11.35;;;;;;;;;;6153822;28;20105;-84
2023/12/09 06:44:00;;;;;;;88.88;21.60;;;;;;;;;;6156220;28;20051;-84
2023/12/09 06:47:02;;;;;;;90.53;22.70;;;;;;;;;;6159511;28;20047;-84
2023/12/09 06:50:06;;;;;;;76.25;20.70;;;;;;;;;;6168920;28;20046;-83
2023/12/09 06:53:13;;;;;;;58.28;18.42;;;;;;;;;;6155628;28;20098;-84
2023/12/09 06:56:19;;;;;;;72.25;19.08;;;;;;;;;;6159254;28;20058;-85
2023/12/09 06:59:21;;;;;;;67.35;17.90;;;;;;;;;;6150143;28;20041;-82
2023/12/09 07:02:23;;;;;;;99.15;25.15;;;;;;;;;;6159366;28;20043;-82
2023/12/09 07:05:26;;;;;;;75.90;20.73;;;;;;;;;;6158219;28;20047;-82
2023/12/09 07:08:28;;;;;;;;;;;;;;;;;;6144820;28;20058;-79
2023/12/09 07:11:34;;;;;;;39.42;11.95;;;;;;;;;;6154657;28;19925;-81
2023/12/09 07:14:36;;;;;;;35.72;11.93;;;;;;;;;;6157164;28;20110;-80
2023/12/09 07:17:38;;;;;;;33.78;10.55;;;;;;;;;;6149939;28;20119;-82
2023/12/09 07:20:40;;;;;;;37.03;10.70;;;;;;;;;;6148058;28;20058;-82
2023/12/09 07:23:42;;;;;;;35.63;10.35;;;;;;;;;;6158703;28;20047;-83
2023/12/09 07:26:44;;;;;;;31.13;10.55;;;;;;;;;;6138517;28;20055;-83
2023/12/09 07:29:46;;;;;;;213.07;59.13;;;;;;;;;;6158067;28;20047;-83
2023/12/09 07:32:48;;;;;;;39.38;11.98;;;;;;;;;;6153772;28;20058;-84
2023/12/09 07:35:49;;;;;;;36.08;12.23;;;;;;;;;;6157689;28;20046;-83
2023/12/09 07:38:51;;;;;;;74.38;29.17;;;;;;;;;;6166494;28;20055;-83
2023/12/09 07:41:53;;;;;;;40.22;13.27;;;;;;;;;;6164778;28;20149;-81
2023/12/09 07:44:55;;;;;;;36.58;12.48;;;;;;;;;;6142753;28;20128;-85
2023/12/09 07:47:57;;;;;;;52.70;20.90;;;;;;;;;;6157941;28;20039;-82
2023/12/09 07:50:59;;;;;;;41.17;12.25;;;;;;;;;;6151017;28;20461;-81
2023/12/09 07:54:01;;;;;;;44.33;13.83;;;;;;;;;;6142495;28;20153;-80
2023/12/09 07:57:04;;;;;;;38.78;14.35;;;;;;;;;;6129423;28;20047;-80
2023/12/09 08:00:07;;;;;;;43.33;13.77;;;;;;;;;;6138254;28;20065;-80
2023/12/09 08:03:09;;;;;;;;;;;;;;;;;;6133595;28;20046;-80
2023/12/09 08:06:11;;;;;;;32.60;12.45;;;;;;;;;;6151840;28;19926;-80
2023/12/09 08:09:15;;;;;;;34.33;13.48;;;;;;;;;;6136401;28;20423;-81
2023/12/09 08:12:17;;;;;;;49.53;17.98;;;;;;;;;;6119684;28;20042;-81
2023/12/09 08:15:18;;;;;;;57.97;18.40;;;;;;;;;;6152741;28;20190;-79
2023/12/09 08:18:20;;;;;;;37.67;13.07;;;;;;;;;;6152594;28;20062;-80
2023/12/09 08:21:24;;;;;;;36.55;13.27;;;;;;;;;;6150149;28;20051;-80
2023/12/09 08:24:27;;;;;;;55.75;21.00;;;;;;;;;;6136388;28;22415;-79
2023/12/09 08:27:29;;;;;;;55.10;21.77;;;;;;;;;;6132825;28;20042;-79
2023/12/09 08:30:32;;;;;;;45.45;19.88;;;;;;;;;;6148912;28;20039;-79
2023/12/09 08:33:34;;;;;;;35.47;14.77;;;;;;;;;;6152051;28;20532;-80
2023/12/09 08:36:36;;;;;;;28.38;12.05;;;;;;;;;;6152109;28;20047;-79
2023/12/09 08:39:40;;;;;;;28.42;11.90;;;;;;;;;;6154271;28;20588;-81
2023/12/09 08:42:43;;;;;;;32.38;13.75;;;;;;;;;;6150733;28;20057;-80
2023/12/09 08:45:45;;;;;;;32.80;12.77;;;;;;;;;;6148016;28;20053;-82
2023/12/09 08:48:47;;;;;;;36.47;12.10;;;;;;;;;;6149071;28;20125;-82
2023/12/09 08:51:49;;;;;;;514.67;134.45;;;;;;;;;;6140426;28;20043;-81
2023/12/09 08:54:50;;;;;;;33.80;12.90;;;;;;;;;;6156422;28;20051;-83
2023/12/09 08:57:52;;;;;;;31.42;10.95;;;;;;;;;;6152012;28;20065;-81
2023/12/09 09:00:54;;;;;;;44.58;18.15;;;;;;;;;;6157870;28;20061;-81
2023/12/09 09:03:56;;;;;;;45.90;15.50;;;;;;;;;;6156050;28;20474;-80
2023/12/09 09:06:58;;;;;;;29.60;11.80;;;;;;;;;;6138927;28;20043;-79
2023/12/09 09:10:00;;;;;;;171.52;36.70;;;;;;;;;;6147255;28;20414;-79
2023/12/09 09:13:01;;;;;;;33.28;12.70;;;;;;;;;;6132153;28;20042;-79
2023/12/09 09:16:04;;;;;;;37.47;13.43;;;;;;;;;;6146886;28;20051;-80
2023/12/09 09:19:06;;;;;;;51.40;17.20;;;;;;;;;;6153756;28;20410;-79
2023/12/09 09:22:07;;;;;;;101.88;28.60;;;;;;;;;;6151548;28;20653;-81
2023/12/09 09:25:09;;;;;;;147.10;37.45;;;;;;;;;;6148406;28;20557;-81
2023/12/09 09:28:12;;;;;;;75.93;20.60;;;;;;;;;;6145569;28;20051;-80
2023/12/09 09:31:13;;;;;;;122.88;27.10;;;;;;;;;;6141363;28;20057;-79
2023/12/09 09:34:15;;;;;;;42.67;13.85;;;;;;;;;;6151775;28;20342;-79
2023/12/09 09:37:17;;;;;;;46.72;17.08;;;;;;;;;;6144692;28;20027;-79
2023/12/09 09:40:20;;;;;;;37.33;13.50;;;;;;;;;;6155806;28;20294;-80
2023/12/09 09:43:28;;;;;;;53.13;15.90;;;;;;;;;;6161052;28;20057;-80
2023/12/09 09:46:31;;;;;;;33.78;12.35;;;;;;;;;;6148309;28;20062;-80
2023/12/09 09:49:36;;;;;;;29.83;11.63;;;;;;;;;;6156421;28;20047;-79
2023/12/09 09:52:41;;;;;;;101.75;24.05;;;;;;;;;;6151978;28;20172;-80
2023/12/09 09:55:43;;;;;;;133.45;30.75;;;;;;;;;;6152903;28;20055;-80
2023/12/09 09:58:45;;;;;;;41.08;12.77;;;;;;;;;;6146280;28;20418;-80
2023/12/09 10:01:47;;;;;;;110.65;26.35;;;;;;;;;;6147647;28;20617;-81
2023/12/09 10:04:48;;;;;;;232.00;48.88;;;;;;;;;;6147938;28;20053;-79
2023/12/09 10:07:51;;;;;;;51.50;14.30;;;;;;;;;;6152062;28;20066;-81
2023/12/09 10:10:53;;;;;;;22.52;9.75;;;;;;;;;;6135247;28;20085;-80
2023/12/09 10:13:55;;;;;;;28.98;12.15;;;;;;;;;;6144668;28;20417;-81
2023/12/09 10:16:57;;;;;;;19.80;8.90;;;;;;;;;;6137015;28;20054;-80
2023/12/09 10:20:00;;;;;;;16.15;8.27;;;;;;;;;;6154555;28;20062;-81
2023/12/09 10:23:01;;;;;;;16.55;8.30;;;;;;;;;;6142845;28;20053;-81
2023/12/09 10:26:04;;;;;;;12.32;7.93;;;;;;;;;;6156490;28;20066;-80
2023/12/09 10:29:06;;;;;;;20.75;8.55;;;;;;;;;;6153713;28;20057;-81
2023/12/09 10:32:08;;;;;;;15.88;7.43;;;;;;;;;;6152055;28;20062;-80
2023/12/09 10:35:10;;;;;;;22.33;9.73;;;;;;;;;;6158692;28;20053;-81
2023/12/09 10:38:15;;;;;;;18.05;8.95;;;;;;;;;;6152519;28;20043;-83
2023/12/09 10:41:17;;;;;;;16.65;7.57;;;;;;;;;;6137901;28;20054;-82
2023/12/09 10:44:18;;;;;;;16.42;7.07;;;;;;;;;;6161038;28;20054;-80
2023/12/09 10:47:20;;;;;;;19.48;7.57;;;;;;;;;;6163899;28;20050;-81
2023/12/09 10:50:22;;;;;;;12.77;5.43;;;;;;;;;;6155847;28;20133;-82
2023/12/09 10:53:24;;;;;;;12.68;6.00;;;;;;;;;;6159776;28;20047;-83
2023/12/09 10:56:26;;;;;;;13.23;6.18;;;;;;;;;;6155393;28;20042;-84
2023/12/09 10:59:32;;;;;;;12.93;5.50;;;;;;;;;;6138705;28;20047;-84
2023/12/09 11:02:35;;;;;;;13.75;6.40;;;;;;;;;;6162904;28;20446;-81
2023/12/09 11:05:45;;;;;;;13.35;5.57;;;;;;;;;;6144841;28;20066;-82
2023/12/09 11:08:47;;;;;;;11.18;5.22;;;;;;;;;;6156530;28;20193;-82
2023/12/09 11:11:49;;;;;;;18.23;5.07;;;;;;;;;;6158873;28;20047;-81
2023/12/09 11:14:51;;;;;;;12.02;4.82;;;;;;;;;;6160733;28;20054;-81
2023/12/09 11:17:52;;;;;;;10.93;5.10;;;;;;;;;;6160022;28;20536;-79
2023/12/09 11:20:56;;;;;;;13.73;5.22;;;;;;;;;;6158537;28;20161;-81
2023/12/09 11:23:58;;;;;;;16.23;7.72;;;;;;;;;;6169749;28;20051;-82
2023/12/09 11:27:00;;;;;;;15.80;6.07;;;;;;;;;;6166562;28;20389;-81
2023/12/09 11:30:03;;;;;;;17.63;6.72;;;;;;;;;;6146610;28;20047;-84
2023/12/09 11:33:05;;;;;;;26.40;12.45;;;;;;;;;;6144927;28;20042;-82
2023/12/09 11:36:07;;;;;;;22.60;9.27;;;;;;;;;;6157616;28;20051;-82
2023/12/09 11:39:19;;;;;;;23.10;9.70;;;;;;;;;;6154831;28;20418;-81
2023/12/09 11:42:22;;;;;;;17.57;7.40;;;;;;;;;;6157360;28;20054;-82
2023/12/09 11:45:24;;;;;;;22.83;9.00;;;;;;;;;;6151021;28;20051;-83
2023/12/09 11:48:27;;;;;;;18.00;6.15;;;;;;;;;;6158129;28;20050;-82
2023/12/09 11:51:30;;;;;;;25.83;9.35;;;;;;;;;;6141600;28;20046;-81
2023/12/09 11:54:32;;;;;;;17.95;8.18;;;;;;;;;;6158632;28;20054;-82
2023/12/09 11:57:34;;;;;;;9.73;4.70;;;;;;;;;;6155111;28;20155;-83
2023/12/09 12:00:35;;;;;;;11.05;5.28;;;;;;;;;;6158905;28;20054;-82
2023/12/09 12:03:37;;;;;;;12.70;5.47;;;;;;;;;;6142292;28;20051;-85
2023/12/09 12:06:39;;;;;;;23.05;7.65;;;;;;;;;;6142580;28;20046;-83
2023/12/09 12:09:41;;;;;;;14.18;5.43;;;;;;;;;;6158274;28;20054;-83
2023/12/09 12:12:43;;;;;;;10.55;4.22;;;;;;;;;;6157053;28;20757;-82
2023/12/09 12:15:46;;;;;;;12.95;4.07;;;;;;;;;;6159447;28;20061;-83
2023/12/09 12:18:48;;;;;;;11.90;4.80;;;;;;;;;;6160826;28;20417;-84
2023/12/09 12:21:54;;;;;;;14.20;5.27;;;;;;;;;;6142127;28;20055;-82
2023/12/09 12:24:56;;;;;;;12.00;3.80;;;;;;;;;;6147915;28;20850;-84
2023/12/09 12:27:58;;;;;;;6.83;3.50;;;;;;;;;;6156194;28;20049;-82
2023/12/09 12:31:00;;;;;;;10.70;4.35;;;;;;;;;;6155584;28;20446;-83
2023/12/09 12:34:17;;;;;;;14.73;4.95;;;;;;;;;;6149482;28;20053;-85
2023/12/09 12:37:19;;;;;;;13.25;4.65;;;;;;;;;;6162406;28;20556;-83
2023/12/09 12:40:21;;;;;;;13.32;4.10;;;;;;;;;;6139119;28;20362;-82
2023/12/09 12:43:23;;;;;;;15.93;4.70;;;;;;;;;;6158738;28;20038;-82
2023/12/09 12:46:26;;;;;;;13.55;4.00;;;;;;;;;;6159433;28;20039;-82
2023/12/09 12:49:30;;;;;;;9.68;3.42;;;;;;;;;;6168765;28;20050;-84
2023/12/09 12:52:32;;;;;;;8.40;2.75;;;;;;;;;;6186941;28;20047;-83
2023/12/09 12:55:34;;;;;;;14.07;4.50;;;;;;;;;;6174596;28;20127;-83
2023/12/09 12:58:35;;;;;;;11.95;5.22;;;;;;;;;;6154202;28;20050;-83
2023/12/09 13:01:38;;;;;;;8.15;3.63;;;;;;;;;;6157631;28;20045;-83
2023/12/09 13:04:40;;;;;;;8.35;3.40;;;;;;;;;;6155441;28;20391;-84
2023/12/09 13:07:43;;;;;;;7.47;3.17;;;;;;;;;;6153717;28;20398;-85
2023/12/09 13:10:45;;;;;;;7.43;3.10;;;;;;;;;;6143159;28;20067;-84
2023/12/09 13:13:47;;;;;;;10.15;3.33;;;;;;;;;;6137598;28;20051;-83
2023/12/09 13:16:48;;;;;;;7.38;3.25;;;;;;;;;;6152117;28;20414;-82
2023/12/09 13:19:50;;;;;;;9.05;3.30;;;;;;;;;;6157417;28;20522;-82
2023/12/09 13:22:52;;;;;;;11.65;4.93;;;;;;;;;;6138820;28;20054;-83
2023/12/09 13:25:53;;;;;;;13.02;4.40;;;;;;;;;;6157588;28;20059;-83
2023/12/09 13:28:55;;;;;;;10.88;4.30;;;;;;;;;;6157331;28;20062;-84
2023/12/09 13:31:57;;;;;;;8.90;4.20;;;;;;;;;;6153137;28;20070;-84
2023/12/09 13:35:03;;;;;;;10.70;3.47;;;;;;;;;;6141101;28;20046;-83
2023/12/09 13:38:07;;;;;;;10.93;4.63;;;;;;;;;;6154218;28;20065;-83
2023/12/09 13:41:09;;;;;;;10.65;4.82;;;;;;;;;;6144959;28;20446;-84
2023/12/09 13:44:10;;;;;;;12.30;5.38;;;;;;;;;;6155061;28;20694;-84
2023/12/09 13:47:12;;;;;;;11.48;4.40;;;;;;;;;;6160976;28;20070;-83
2023/12/09 13:50:14;;;;;;;11.60;4.97;;;;;;;;;;6160048;28;20055;-83
2023/12/09 13:53:16;;;;;;;12.00;4.95;;;;;;;;;;6165020;28;20517;-82
2023/12/09 13:56:18;;;;;;;12.95;5.03;;;;;;;;;;6157817;28;20055;-85
2023/12/09 13:59:20;;;;;;;20.35;6.88;;;;;;;;;;6162600;28;20065;-83
2023/12/09 14:02:22;;;;;;;14.93;5.22;;;;;;;;;;6164751;28;20061;-84
2023/12/09 14:05:24;;;;;;;17.05;7.90;;;;;;;;;;6163038;28;20039;-84
2023/12/09 14:08:26;;;;;;;13.35;6.63;;;;;;;;;;6161022;28;20414;-83
2023/12/09 14:11:27;;;;;;;12.10;5.65;;;;;;;;;;6147410;28;20181;-85
2023/12/09 14:14:30;;;;;;;11.90;5.53;;;;;;;;;;6160333;28;20498;-84
2023/12/09 14:17:33;;;;;;;11.73;5.38;;;;;;;;;;6161674;28;20047;-84
2023/12/09 14:20:35;;;;;;;14.48;6.15;;;;;;;;;;6157669;28;20051;-84
2023/12/09 14:23:37;;;;;;;11.38;6.22;;;;;;;;;;6164086;28;20038;-83
2023/12/09 14:26:39;;;;;;;17.92;7.07;;;;;;;;;;6155884;28;20050;-84
2023/12/09 14:29:40;;;;;;;13.38;5.22;;;;;;;;;;6159934;28;20714;-85
2023/12/09 14:32:45;;;;;;;8.88;4.45;;;;;;;;;;6178415;28;20087;-87
2023/12/09 14:35:48;;;;;;;21.17;7.60;;;;;;;;;;6148828;28;20050;-86
2023/12/09 14:38:50;;;;;;;13.05;5.82;;;;;;;;;;6169113;28;20110;-87
2023/12/09 14:41:52;;;;;;;23.55;10.95;;;;;;;;;;6147837;28;20043;-83
2023/12/09 14:44:53;;;;;;;16.13;7.50;;;;;;;;;;6163974;28;20058;-83
2023/12/09 14:47:55;;;;;;;10.57;5.18;;;;;;;;;;6143896;28;20050;-85
2023/12/09 14:51:07;;;;;;;10.23;5.20;;;;;;;;;;6155220;28;20062;-84
2023/12/09 14:54:11;;;;;;;17.20;8.20;;;;;;;;;;6144229;28;20050;-82
2023/12/09 14:57:16;;;;;;;14.23;6.38;;;;;;;;;;6143104;28;20054;-84
2023/12/09 15:00:18;;;;;;;15.25;6.03;;;;;;;;;;6151493;28;20583;-84
2023/12/09 15:03:20;;;;;;;10.85;5.53;;;;;;;;;;6151863;28;20066;-83
2023/12/09 15:06:22;;;;;;;15.73;6.18;;;;;;;;;;6158500;28;20074;-83
2023/12/09 15:09:24;;;;;;;13.43;5.20;;;;;;;;;;6157700;28;20131;-81
2023/12/09 15:12:26;;;;;;;7.65;4.50;;;;;;;;;;6137330;28;20121;-82
2023/12/09 15:15:28;;;;;;;16.05;8.55;;;;;;;;;;6154710;28;20130;-82
2023/12/09 15:18:30;;;;;;;12.18;5.55;;;;;;;;;;6156164;28;20250;-82
2023/12/09 15:21:33;;;;;;;14.73;7.18;;;;;;;;;;6153790;28;20066;-81
2023/12/09 15:24:35;;;;;;;17.27;6.00;;;;;;;;;;6152800;28;20051;-81
2023/12/09 15:27:37;;;;;;;12.57;6.60;;;;;;;;;;6139096;28;20058;-81
2023/12/09 15:30:39;;;;;;;18.50;10.00;;;;;;;;;;6155389;28;20115;-81
2023/12/09 15:33:41;;;;;;;8.38;5.13;;;;;;;;;;6149047;28;20097;-80
2023/12/09 15:36:43;;;;;;;16.15;7.43;;;;;;;;;;6155060;28;20057;-81
2023/12/09 15:39:44;;;;;;;16.55;8.13;;;;;;;;;;6153845;28;20069;-82
2023/12/09 15:42:46;;;;;;;13.80;6.57;;;;;;;;;;6148863;28;20189;-81
2023/12/09 15:45:48;;;;;;;11.23;6.03;;;;;;;;;;6155536;28;20047;-79
2023/12/09 15:48:51;;;;;;;11.35;7.50;;;;;;;;;;6143044;28;20673;-81
2023/12/09 15:51:53;;;;;;;16.70;12.63;;;;;;;;;;6154626;28;20183;-81
2023/12/09 15:54:55;;;;;;;9.38;5.63;;;;;;;;;;6160634;28;20039;-82
2023/12/09 15:57:59;;;;;;;5.15;3.95;;;;;;;;;;6170177;28;20035;-81
2023/12/09 16:01:02;;;;;;;9.52;6.15;;;;;;;;;;6178946;28;20046;-82
2023/12/09 16:04:04;;;;;;;4.93;3.30;;;;;;;;;;6155793;28;20051;-81
2023/12/09 16:07:06;;;;;;;3.95;2.15;;;;;;;;;;6153036;28;20514;-82
2023/12/09 16:10:08;;;;;;;3.65;2.80;;;;;;;;;;6131651;28;20050;-83
2023/12/09 16:13:09;;;;;;;3.42;2.05;;;;;;;;;;6155135;28;20038;-84
2023/12/09 16:16:13;;;;;;;3.45;2.55;;;;;;;;;;6157709;28;20050;-84
2023/12/09 16:19:15;;;;;;;36.45;16.25;;;;;;;;;;6162923;28;20058;-84
2023/12/09 16:22:17;;;;;;;3.83;2.30;;;;;;;;;;6164487;28;20209;-84
2023/12/09 16:25:18;;;;;;;3.28;1.98;;;;;;;;;;6157767;28;20057;-83
2023/12/09 16:28:20;;;;;;;2.97;1.85;;;;;;;;;;6159850;28;20046;-85
2023/12/09 16:31:22;;;;;;;13.10;5.82;;;;;;;;;;6172297;28;20062;-84
2023/12/09 16:34:24;;;;;;;5.03;2.55;;;;;;;;;;6172824;28;20047;-83
2023/12/09 16:37:27;;;;;;;5.35;3.65;;;;;;;;;;6161603;28;20074;-85
2023/12/09 16:40:30;;;;;;;3.42;2.30;;;;;;;;;;6139660;28;20047;-83
2023/12/09 16:43:32;;;;;;;3.13;1.98;;;;;;;;;;6141376;28;20043;-84
2023/12/09 16:46:34;;;;;;;2.20;2.00;;;;;;;;;;6137349;28;20213;-83
2023/12/09 16:49:37;;;;;;;2.97;1.70;;;;;;;;;;6152278;28;20102;-83
2023/12/09 16:52:39;;;;;;;4.85;2.22;;;;;;;;;;6151268;28;20066;-83
2023/12/09 16:55:41;;;;;;;27.10;13.15;;;;;;;;;;6143885;28;20070;-82
2023/12/09 16:58:42;;;;;;;4.07;2.53;;;;;;;;;;6129765;28;20051;-82
2023/12/09 17:01:44;;;;;;;7.00;3.20;;;;;;;;;;6133467;28;20069;-81
2023/12/09 17:04:47;;;;;;;3.00;2.20;;;;;;;;;;6151358;28;20053;-81
2023/12/09 17:07:49;;;;;;;3.33;2.20;;;;;;;;;;6151258;28;20050;-82
2023/12/09 17:10:50;;;;;;;2.22;1.90;;;;;;;;;;6131345;28;20047;-80
2023/12/09 17:13:52;;;;;;;4.05;2.13;;;;;;;;;;6148425;28;20050;-81
2023/12/09 17:16:54;;;;;;;3.63;3.00;;;;;;;;;;6130265;28;20047;-81
2023/12/09 17:19:56;;;;;;;9.50;4.00;;;;;;;;;;6146195;28;20069;-82
2023/12/09 17:22:58;;;;;;;3.75;2.75;;;;;;;;;;6147113;28;20043;-81
2023/12/09 17:26:00;;;;;;;6.07;4.28;;;;;;;;;;6144992;28;20051;-80
2023/12/09 17:29:03;;;;;;;17.83;7.97;;;;;;;;;;6146053;28;20043;-80
2023/12/09 17:32:05;;;;;;;32.05;15.27;;;;;;;;;;6110351;28;20042;-82
2023/12/09 17:35:10;;;;;;;3.53;2.83;;;;;;;;;;6151812;28;20047;-82
2023/12/09 17:38:12;;;;;;;36.28;16.92;;;;;;;;;;6116949;28;20047;-82
2023/12/09 17:41:14;;;;;;;12.70;6.63;;;;;;;;;;6148109;28;20053;-81
2023/12/09 17:44:15;;;;;;;7.35;3.92;;;;;;;;;;6134977;28;20049;-82
2023/12/09 17:47:17;;;;;;;21.55;6.55;;;;;;;;;;6146871;28;20441;-81
2023/12/09 17:50:19;;;;;;;24.88;13.23;;;;;;;;;;6132503;28;20059;-79
2023/12/09 17:53:21;;;;;;;27.83;13.90;;;;;;;;;;6152492;28;20042;-80